Portada
METAR-TAF:

METAR-TAF

Aeroports :

Nakhon Ratchasima, Tailàndia

latitud: 14-56-58N, longitud: 102-18-45E, altitud: 233 m

Observació

L'informe es va fer fa 30 minuts, a les 18:00 UTC
Vent 6 kt del Sud/Sud-Oest
Temperatura 28°C
Humitat 79%
Pressió 1008 hPa

METAR: VTUQ 181800Z AUTO 21006KT ////NDV ////// 28/24 Q1008 A2976

Hora: 01:30 (18:30 UTC)

Pronòstic

L'informe es va fer fa 1 hora i 30 minuts, a les 17:00 UTC
Pronòstic vàlid del 18 a les 18 UTC al 19 a les 18 UTC
Vent 5 kt del Sud/Sud-Oest
Visibilitat: 8000 m
Escasses núvols a una alçada de 3500 ft
Evolucionant progressivament
l' 18 a les 21 UTC al 18 a les 23 UTC
Visibilitat: 6000 m
Evolucionant progressivament
l' 19 a les 02 UTC al 19 a les 04 UTC
Visibilitat: 9000 m
Escasses núvols a una alçada de 3000 ft
Evolucionant progressivament
l' 19 a les 15 UTC al 19 a les 17 UTC
Visibilitat: 6000 m

TAF: VTUQ 181700Z 1818/1918 21005KT 8000 FEW035 BECMG 1821/1823 6000 NSC BECMG 1902/1904 9000 FEW030 BECMG 1915/1917 6000 NSC

Observacions i pronòstics meteorològics de més de 4000 aeroports (METAR i TAF).

Les estacions disponibles són els punts grocs i vermells al mapa.

Posi el ratolí al punt desitjat per veure el nom de l'estació.

Feu clic per veure les observacions i els pronòstics meteorològics.

Per canviar el mapa: feu clic els botons verds amb una creu de color negre per apropar; al botó verd amb un guió per allunyar la imatge; o en les fletxes verdes per a mapes adjacents.


METAR-TAF: